sensor_id;sensor_type;location;lat;lon;timestamp;P1;durP1;ratioP1;P2;durP2;ratioP2
49175;SDS011;35012;47.200;9.748;2023-02-28T00:00:17;8.70;;;6.87;;
49175;SDS011;35012;47.200;9.748;2023-02-28T00:02:43;8.53;;;6.37;;
49175;SDS011;35012;47.200;9.748;2023-02-28T00:05:10;8.80;;;6.23;;
49175;SDS011;35012;47.200;9.748;2023-02-28T00:07:40;8.43;;;6.70;;
49175;SDS011;35012;47.200;9.748;2023-02-28T00:10:08;7.47;;;6.50;;
49175;SDS011;35012;47.200;9.748;2023-02-28T00:12:38;8.33;;;6.77;;
49175;SDS011;35012;47.200;9.748;2023-02-28T00:15:07;7.00;;;6.30;;
49175;SDS011;35012;47.200;9.748;2023-02-28T00:17:34;8.70;;;6.90;;
49175;SDS011;35012;47.200;9.748;2023-02-28T00:20:00;8.87;;;7.37;;
49175;SDS011;35012;47.200;9.748;2023-02-28T00:22:41;8.37;;;6.90;;
49175;SDS011;35012;47.200;9.748;2023-02-28T00:25:08;8.23;;;7.10;;
49175;SDS011;35012;47.200;9.748;2023-02-28T00:27:35;10.50;;;6.80;;
49175;SDS011;35012;47.200;9.748;2023-02-28T00:30:02;7.37;;;6.60;;
49175;SDS011;35012;47.200;9.748;2023-02-28T00:32:28;8.93;;;7.47;;
49175;SDS011;35012;47.200;9.748;2023-02-28T00:34:53;8.63;;;7.53;;
49175;SDS011;35012;47.200;9.748;2023-02-28T00:37:19;8.87;;;7.20;;
49175;SDS011;35012;47.200;9.748;2023-02-28T00:39:44;7.70;;;7.00;;
49175;SDS011;35012;47.200;9.748;2023-02-28T00:42:10;8.07;;;7.20;;
49175;SDS011;35012;47.200;9.748;2023-02-28T00:44:35;8.70;;;7.27;;
49175;SDS011;35012;47.200;9.748;2023-02-28T00:47:01;7.90;;;7.17;;
49175;SDS011;35012;47.200;9.748;2023-02-28T00:49:27;7.87;;;7.07;;
49175;SDS011;35012;47.200;9.748;2023-02-28T00:51:53;9.27;;;7.40;;
49175;SDS011;35012;47.200;9.748;2023-02-28T00:54:19;8.83;;;7.13;;
49175;SDS011;35012;47.200;9.748;2023-02-28T00:56:45;7.37;;;6.60;;
49175;SDS011;35012;47.200;9.748;2023-02-28T00:59:11;7.83;;;6.63;;
49175;SDS011;35012;47.200;9.748;2023-02-28T01:01:40;7.87;;;7.07;;
49175;SDS011;35012;47.200;9.748;2023-02-28T01:04:06;8.53;;;7.13;;
49175;SDS011;35012;47.200;9.748;2023-02-28T01:06:32;9.10;;;7.40;;
49175;SDS011;35012;47.200;9.748;2023-02-28T01:08:58;8.23;;;7.40;;
49175;SDS011;35012;47.200;9.748;2023-02-28T01:11:24;7.57;;;6.80;;
49175;SDS011;35012;47.200;9.748;2023-02-28T01:13:50;7.60;;;6.90;;
49175;SDS011;35012;47.200;9.748;2023-02-28T01:16:15;6.90;;;6.20;;
49175;SDS011;35012;47.200;9.748;2023-02-28T01:18:41;7.57;;;6.77;;
49175;SDS011;35012;47.200;9.748;2023-02-28T01:21:08;11.17;;;7.90;;
49175;SDS011;35012;47.200;9.748;2023-02-28T01:23:37;10.10;;;7.40;;
49175;SDS011;35012;47.200;9.748;2023-02-28T01:26:05;9.97;;;7.33;;
49175;SDS011;35012;47.200;9.748;2023-02-28T01:28:35;9.80;;;7.60;;
49175;SDS011;35012;47.200;9.748;2023-02-28T01:31:01;8.27;;;7.37;;
49175;SDS011;35012;47.200;9.748;2023-02-28T01:33:26;8.60;;;7.70;;
49175;SDS011;35012;47.200;9.748;2023-02-28T01:36:00;10.33;;;7.33;;
49175;SDS011;35012;47.200;9.748;2023-02-28T01:38:29;9.40;;;7.73;;
49175;SDS011;35012;47.200;9.748;2023-02-28T01:40:55;7.73;;;6.37;;
49175;SDS011;35012;47.200;9.748;2023-02-28T01:46:12;7.47;;;6.70;;
49175;SDS011;35012;47.200;9.748;2023-02-28T01:48:49;7.67;;;6.97;;
49175;SDS011;35012;47.200;9.748;2023-02-28T01:51:29;8.87;;;7.37;;
49175;SDS011;35012;47.200;9.748;2023-02-28T01:53:59;8.03;;;7.23;;
49175;SDS011;35012;47.200;9.748;2023-02-28T01:56:29;7.90;;;7.10;;
49175;SDS011;35012;47.200;9.748;2023-02-28T01:58:56;7.97;;;7.17;;
49175;SDS011;35012;47.200;9.748;2023-02-28T02:01:22;8.67;;;7.13;;
49175;SDS011;35012;47.200;9.748;2023-02-28T02:03:53;9.07;;;7.20;;
49175;SDS011;35012;47.200;9.748;2023-02-28T02:06:23;8.63;;;7.23;;
49175;SDS011;35012;47.200;9.748;2023-02-28T02:08:51;9.70;;;7.03;;
49175;SDS011;35012;47.200;9.748;2023-02-28T02:11:17;8.93;;;7.50;;
49175;SDS011;35012;47.200;9.748;2023-02-28T02:19:44;8.80;;;7.17;;
49175;SDS011;35012;47.200;9.748;2023-02-28T02:25:16;8.80;;;7.10;;
49175;SDS011;35012;47.200;9.748;2023-02-28T02:28:05;8.63;;;7.53;;
49175;SDS011;35012;47.200;9.748;2023-02-28T02:33:22;9.57;;;7.67;;
49175;SDS011;35012;47.200;9.748;2023-02-28T02:46:42;8.70;;;7.80;;
49175;SDS011;35012;47.200;9.748;2023-02-28T02:49:10;9.33;;;7.60;;
49175;SDS011;35012;47.200;9.748;2023-02-28T02:51:40;8.50;;;7.60;;
49175;SDS011;35012;47.200;9.748;2023-02-28T02:56:41;10.30;;;8.23;;
49175;SDS011;35012;47.200;9.748;2023-02-28T02:59:09;9.23;;;7.90;;
49175;SDS011;35012;47.200;9.748;2023-02-28T03:01:37;10.67;;;8.17;;
49175;SDS011;35012;47.200;9.748;2023-02-28T03:04:05;9.60;;;7.83;;
49175;SDS011;35012;47.200;9.748;2023-02-28T03:06:35;12.10;;;8.20;;
49175;SDS011;35012;47.200;9.748;2023-02-28T03:09:00;8.97;;;8.07;;
49175;SDS011;35012;47.200;9.748;2023-02-28T03:11:26;9.33;;;8.03;;
49175;SDS011;35012;47.200;9.748;2023-02-28T03:13:55;8.97;;;8.07;;
49175;SDS011;35012;47.200;9.748;2023-02-28T03:19:29;11.37;;;8.47;;
49175;SDS011;35012;47.200;9.748;2023-02-28T03:33:10;9.17;;;7.83;;
49175;SDS011;35012;47.200;9.748;2023-02-28T03:35:48;9.50;;;8.07;;
49175;SDS011;35012;47.200;9.748;2023-02-28T03:38:38;10.60;;;9.03;;
49175;SDS011;35012;47.200;9.748;2023-02-28T03:41:13;11.53;;;8.87;;
49175;SDS011;35012;47.200;9.748;2023-02-28T03:43:42;10.00;;;8.77;;
49175;SDS011;35012;47.200;9.748;2023-02-28T03:46:11;10.60;;;9.20;;
49175;SDS011;35012;47.200;9.748;2023-02-28T03:48:45;10.50;;;9.30;;
49175;SDS011;35012;47.200;9.748;2023-02-28T03:51:15;10.10;;;9.07;;
49175;SDS011;35012;47.200;9.748;2023-02-28T03:53:48;12.87;;;9.40;;
49175;SDS011;35012;47.200;9.748;2023-02-28T04:01:15;10.20;;;8.90;;
49175;SDS011;35012;47.200;9.748;2023-02-28T04:03:46;10.40;;;9.07;;
49175;SDS011;35012;47.200;9.748;2023-02-28T04:06:15;9.80;;;8.77;;
49175;SDS011;35012;47.200;9.748;2023-02-28T04:08:43;11.97;;;9.40;;
49175;SDS011;35012;47.200;9.748;2023-02-28T04:13:45;11.57;;;9.23;;
49175;SDS011;35012;47.200;9.748;2023-02-28T04:16:11;11.60;;;9.93;;
49175;SDS011;35012;47.200;9.748;2023-02-28T04:18:37;11.20;;;10.00;;
49175;SDS011;35012;47.200;9.748;2023-02-28T04:21:03;12.20;;;10.60;;
49175;SDS011;35012;47.200;9.748;2023-02-28T04:23:30;11.40;;;10.07;;
49175;SDS011;35012;47.200;9.748;2023-02-28T04:25:56;13.30;;;11.33;;
49175;SDS011;35012;47.200;9.748;2023-02-28T04:28:21;11.90;;;10.60;;
49175;SDS011;35012;47.200;9.748;2023-02-28T04:30:47;12.40;;;9.63;;
49175;SDS011;35012;47.200;9.748;2023-02-28T04:33:12;12.80;;;10.67;;
49175;SDS011;35012;47.200;9.748;2023-02-28T04:35:38;11.97;;;10.40;;
49175;SDS011;35012;47.200;9.748;2023-02-28T04:38:03;11.33;;;9.53;;
49175;SDS011;35012;47.200;9.748;2023-02-28T04:40:29;14.20;;;10.33;;
49175;SDS011;35012;47.200;9.748;2023-02-28T04:42:54;13.17;;;10.57;;
49175;SDS011;35012;47.200;9.748;2023-02-28T04:45:20;13.73;;;10.00;;
49175;SDS011;35012;47.200;9.748;2023-02-28T04:47:45;28.03;;;17.40;;
49175;SDS011;35012;47.200;9.748;2023-02-28T04:50:11;29.03;;;18.17;;
49175;SDS011;35012;47.200;9.748;2023-02-28T04:52:36;23.13;;;16.63;;
49175;SDS011;35012;47.200;9.748;2023-02-28T04:55:02;25.73;;;18.23;;
49175;SDS011;35012;47.200;9.748;2023-02-28T04:57:28;18.43;;;13.10;;
49175;SDS011;35012;47.200;9.748;2023-02-28T04:59:55;13.70;;;10.60;;
49175;SDS011;35012;47.200;9.748;2023-02-28T05:02:20;13.50;;;11.23;;
49175;SDS011;35012;47.200;9.748;2023-02-28T05:04:46;14.00;;;11.70;;
49175;SDS011;35012;47.200;9.748;2023-02-28T05:07:11;14.17;;;11.10;;
49175;SDS011;35012;47.200;9.748;2023-02-28T05:09:37;12.60;;;10.87;;
49175;SDS011;35012;47.200;9.748;2023-02-28T05:12:02;13.00;;;10.70;;
49175;SDS011;35012;47.200;9.748;2023-02-28T05:14:28;13.43;;;11.60;;
49175;SDS011;35012;47.200;9.748;2023-02-28T05:16:53;15.20;;;10.97;;
49175;SDS011;35012;47.200;9.748;2023-02-28T05:19:19;12.50;;;10.10;;
49175;SDS011;35012;47.200;9.748;2023-02-28T05:21:53;13.63;;;10.70;;
49175;SDS011;35012;47.200;9.748;2023-02-28T05:24:19;12.13;;;10.50;;
49175;SDS011;35012;47.200;9.748;2023-02-28T05:26:48;14.13;;;11.47;;
49175;SDS011;35012;47.200;9.748;2023-02-28T05:29:16;14.90;;;12.10;;
49175;SDS011;35012;47.200;9.748;2023-02-28T05:31:41;13.70;;;11.27;;
49175;SDS011;35012;47.200;9.748;2023-02-28T05:34:07;14.20;;;11.30;;
49175;SDS011;35012;47.200;9.748;2023-02-28T05:36:32;14.30;;;10.70;;
49175;SDS011;35012;47.200;9.748;2023-02-28T05:38:58;15.87;;;12.30;;
49175;SDS011;35012;47.200;9.748;2023-02-28T05:41:24;13.33;;;11.00;;
49175;SDS011;35012;47.200;9.748;2023-02-28T05:43:51;13.97;;;11.57;;
49175;SDS011;35012;47.200;9.748;2023-02-28T05:46:16;13.13;;;10.33;;
49175;SDS011;35012;47.200;9.748;2023-02-28T05:48:42;13.80;;;10.67;;
49175;SDS011;35012;47.200;9.748;2023-02-28T05:51:10;12.80;;;10.27;;
49175;SDS011;35012;47.200;9.748;2023-02-28T05:53:35;13.13;;;10.57;;
49175;SDS011;35012;47.200;9.748;2023-02-28T05:56:01;15.97;;;11.10;;
49175;SDS011;35012;47.200;9.748;2023-02-28T05:58:27;14.90;;;11.37;;
49175;SDS011;35012;47.200;9.748;2023-02-28T06:00:56;16.20;;;11.93;;
49175;SDS011;35012;47.200;9.748;2023-02-28T06:03:22;15.97;;;11.47;;
49175;SDS011;35012;47.200;9.748;2023-02-28T06:05:47;15.93;;;11.57;;
49175;SDS011;35012;47.200;9.748;2023-02-28T06:08:13;13.60;;;11.23;;
49175;SDS011;35012;47.200;9.748;2023-02-28T06:10:38;14.60;;;11.17;;
49175;SDS011;35012;47.200;9.748;2023-02-28T06:13:04;15.77;;;11.40;;
49175;SDS011;35012;47.200;9.748;2023-02-28T06:15:30;15.17;;;11.80;;
49175;SDS011;35012;47.200;9.748;2023-02-28T06:17:55;13.63;;;11.13;;
49175;SDS011;35012;47.200;9.748;2023-02-28T06:20:21;13.53;;;11.20;;
49175;SDS011;35012;47.200;9.748;2023-02-28T06:22:47;12.83;;;10.63;;
49175;SDS011;35012;47.200;9.748;2023-02-28T06:25:13;13.80;;;10.90;;
49175;SDS011;35012;47.200;9.748;2023-02-28T06:27:38;13.63;;;10.57;;
49175;SDS011;35012;47.200;9.748;2023-02-28T06:30:04;13.80;;;11.10;;
49175;SDS011;35012;47.200;9.748;2023-02-28T06:32:30;14.87;;;11.23;;
49175;SDS011;35012;47.200;9.748;2023-02-28T06:34:55;13.27;;;10.70;;
49175;SDS011;35012;47.200;9.748;2023-02-28T06:37:23;13.87;;;11.20;;
49175;SDS011;35012;47.200;9.748;2023-02-28T06:39:51;15.00;;;11.33;;
49175;SDS011;35012;47.200;9.748;2023-02-28T06:42:17;15.13;;;11.73;;
49175;SDS011;35012;47.200;9.748;2023-02-28T06:44:42;13.77;;;11.83;;
49175;SDS011;35012;47.200;9.748;2023-02-28T06:47:08;14.33;;;11.63;;
49175;SDS011;35012;47.200;9.748;2023-02-28T06:49:34;17.03;;;12.17;;
49175;SDS011;35012;47.200;9.748;2023-02-28T06:52:00;15.27;;;11.83;;
49175;SDS011;35012;47.200;9.748;2023-02-28T06:54:26;15.70;;;12.30;;
49175;SDS011;35012;47.200;9.748;2023-02-28T06:56:52;13.87;;;11.83;;
49175;SDS011;35012;47.200;9.748;2023-02-28T06:59:19;15.53;;;11.63;;
49175;SDS011;35012;47.200;9.748;2023-02-28T07:01:45;14.60;;;11.53;;
49175;SDS011;35012;47.200;9.748;2023-02-28T07:04:11;13.77;;;11.00;;
49175;SDS011;35012;47.200;9.748;2023-02-28T07:06:38;14.83;;;11.80;;
49175;SDS011;35012;47.200;9.748;2023-02-28T07:09:04;17.10;;;12.03;;
49175;SDS011;35012;47.200;9.748;2023-02-28T07:11:30;16.33;;;12.13;;
49175;SDS011;35012;47.200;9.748;2023-02-28T07:13:55;17.07;;;12.17;;
49175;SDS011;35012;47.200;9.748;2023-02-28T07:16:21;17.27;;;13.37;;
49175;SDS011;35012;47.200;9.748;2023-02-28T07:18:48;13.90;;;12.23;;
49175;SDS011;35012;47.200;9.748;2023-02-28T07:21:14;14.30;;;11.80;;
49175;SDS011;35012;47.200;9.748;2023-02-28T07:23:40;16.20;;;12.67;;
49175;SDS011;35012;47.200;9.748;2023-02-28T07:26:07;16.03;;;12.37;;
49175;SDS011;35012;47.200;9.748;2023-02-28T07:28:39;14.87;;;12.10;;
49175;SDS011;35012;47.200;9.748;2023-02-28T07:31:07;14.30;;;11.57;;
49175;SDS011;35012;47.200;9.748;2023-02-28T07:33:34;19.67;;;14.53;;
49175;SDS011;35012;47.200;9.748;2023-02-28T07:36:01;17.03;;;12.83;;
49175;SDS011;35012;47.200;9.748;2023-02-28T07:38:31;16.70;;;10.80;;
49175;SDS011;35012;47.200;9.748;2023-02-28T07:40:59;14.17;;;11.07;;
49175;SDS011;35012;47.200;9.748;2023-02-28T07:43:25;15.83;;;10.57;;
49175;SDS011;35012;47.200;9.748;2023-02-28T07:45:50;13.10;;;11.07;;
49175;SDS011;35012;47.200;9.748;2023-02-28T07:48:16;13.70;;;10.97;;
49175;SDS011;35012;47.200;9.748;2023-02-28T07:50:41;12.07;;;9.73;;
49175;SDS011;35012;47.200;9.748;2023-02-28T07:53:07;13.87;;;11.33;;
49175;SDS011;35012;47.200;9.748;2023-02-28T07:55:32;13.87;;;10.57;;
49175;SDS011;35012;47.200;9.748;2023-02-28T07:57:58;15.53;;;10.80;;
49175;SDS011;35012;47.200;9.748;2023-02-28T08:00:23;13.27;;;10.90;;
49175;SDS011;35012;47.200;9.748;2023-02-28T08:02:49;12.00;;;10.17;;
49175;SDS011;35012;47.200;9.748;2023-02-28T08:05:15;12.37;;;9.80;;
49175;SDS011;35012;47.200;9.748;2023-02-28T08:07:40;11.33;;;10.10;;
49175;SDS011;35012;47.200;9.748;2023-02-28T08:10:06;14.03;;;10.17;;
49175;SDS011;35012;47.200;9.748;2023-02-28T08:12:33;12.80;;;9.97;;
49175;SDS011;35012;47.200;9.748;2023-02-28T08:14:59;11.13;;;9.83;;
49175;SDS011;35012;47.200;9.748;2023-02-28T08:17:24;14.27;;;10.53;;
49175;SDS011;35012;47.200;9.748;2023-02-28T08:19:50;12.77;;;10.83;;
49175;SDS011;35012;47.200;9.748;2023-02-28T08:22:15;11.87;;;10.50;;
49175;SDS011;35012;47.200;9.748;2023-02-28T08:24:41;10.97;;;9.80;;
49175;SDS011;35012;47.200;9.748;2023-02-28T08:27:08;12.90;;;9.93;;
49175;SDS011;35012;47.200;9.748;2023-02-28T08:29:36;11.13;;;9.80;;
49175;SDS011;35012;47.200;9.748;2023-02-28T08:32:03;12.83;;;9.33;;
49175;SDS011;35012;47.200;9.748;2023-02-28T08:34:29;10.97;;;9.63;;
49175;SDS011;35012;47.200;9.748;2023-02-28T08:36:54;12.40;;;10.20;;
49175;SDS011;35012;47.200;9.748;2023-02-28T08:39:20;15.27;;;9.73;;
49175;SDS011;35012;47.200;9.748;2023-02-28T08:41:46;13.93;;;10.43;;
49175;SDS011;35012;47.200;9.748;2023-02-28T08:44:11;15.47;;;10.80;;
49175;SDS011;35012;47.200;9.748;2023-02-28T08:46:37;13.07;;;10.40;;
49175;SDS011;35012;47.200;9.748;2023-02-28T08:49:03;14.57;;;10.97;;
49175;SDS011;35012;47.200;9.748;2023-02-28T08:51:28;12.83;;;10.40;;
49175;SDS011;35012;47.200;9.748;2023-02-28T08:54:00;13.43;;;10.37;;
49175;SDS011;35012;47.200;9.748;2023-02-28T08:56:26;11.30;;;9.93;;
49175;SDS011;35012;47.200;9.748;2023-02-28T08:58:54;11.40;;;10.20;;
49175;SDS011;35012;47.200;9.748;2023-02-28T09:01:29;10.53;;;9.20;;
49175;SDS011;35012;47.200;9.748;2023-02-28T09:03:56;12.13;;;9.97;;
49175;SDS011;35012;47.200;9.748;2023-02-28T09:06:23;13.10;;;10.57;;
49175;SDS011;35012;47.200;9.748;2023-02-28T09:08:50;11.17;;;10.00;;
49175;SDS011;35012;47.200;9.748;2023-02-28T09:11:16;11.93;;;10.03;;
49175;SDS011;35012;47.200;9.748;2023-02-28T09:13:41;13.10;;;10.33;;
49175;SDS011;35012;47.200;9.748;2023-02-28T09:16:09;12.97;;;10.00;;
49175;SDS011;35012;47.200;9.748;2023-02-28T09:18:36;11.03;;;9.90;;
49175;SDS011;35012;47.200;9.748;2023-02-28T09:21:06;11.60;;;10.13;;
49175;SDS011;35012;47.200;9.748;2023-02-28T09:23:32;12.90;;;10.27;;
49175;SDS011;35012;47.200;9.748;2023-02-28T09:25:58;13.80;;;11.10;;
49175;SDS011;35012;47.200;9.748;2023-02-28T09:28:24;19.63;;;13.87;;
49175;SDS011;35012;47.200;9.748;2023-02-28T09:30:50;13.00;;;10.47;;
49175;SDS011;35012;47.200;9.748;2023-02-28T09:33:18;12.20;;;10.87;;
49175;SDS011;35012;47.200;9.748;2023-02-28T09:35:48;13.87;;;11.57;;
49175;SDS011;35012;47.200;9.748;2023-02-28T09:38:15;14.10;;;10.83;;
49175;SDS011;35012;47.200;9.748;2023-02-28T09:40:51;13.60;;;10.57;;
49175;SDS011;35012;47.200;9.748;2023-02-28T09:43:19;13.30;;;10.63;;
49175;SDS011;35012;47.200;9.748;2023-02-28T09:45:48;11.97;;;10.10;;
49175;SDS011;35012;47.200;9.748;2023-02-28T09:48:25;10.83;;;9.73;;
49175;SDS011;35012;47.200;9.748;2023-02-28T09:51:03;10.40;;;9.30;;
49175;SDS011;35012;47.200;9.748;2023-02-28T09:53:32;10.90;;;9.80;;
49175;SDS011;35012;47.200;9.748;2023-02-28T09:58:44;12.47;;;9.90;;
49175;SDS011;35012;47.200;9.748;2023-02-28T10:04:03;11.53;;;9.63;;
49175;SDS011;35012;47.200;9.748;2023-02-28T10:06:44;10.50;;;8.80;;
49175;SDS011;35012;47.200;9.748;2023-02-28T10:09:19;11.90;;;10.03;;
49175;SDS011;35012;47.200;9.748;2023-02-28T10:11:48;11.23;;;9.93;;
49175;SDS011;35012;47.200;9.748;2023-02-28T10:14:24;11.00;;;9.40;;
49175;SDS011;35012;47.200;9.748;2023-02-28T10:16:52;11.17;;;9.93;;
49175;SDS011;35012;47.200;9.748;2023-02-28T10:19:23;11.37;;;9.17;;
49175;SDS011;35012;47.200;9.748;2023-02-28T10:24:32;10.97;;;9.37;;
49175;SDS011;35012;47.200;9.748;2023-02-28T10:29:37;11.03;;;9.67;;
49175;SDS011;35012;47.200;9.748;2023-02-28T10:32:05;10.53;;;9.53;;
49175;SDS011;35012;47.200;9.748;2023-02-28T10:34:31;12.23;;;9.77;;
49175;SDS011;35012;47.200;9.748;2023-02-28T10:36:57;11.37;;;10.17;;
49175;SDS011;35012;47.200;9.748;2023-02-28T10:42:02;11.13;;;10.00;;
49175;SDS011;35012;47.200;9.748;2023-02-28T10:44:28;10.27;;;9.27;;
49175;SDS011;35012;47.200;9.748;2023-02-28T10:46:54;11.20;;;10.00;;
49175;SDS011;35012;47.200;9.748;2023-02-28T10:49:22;10.53;;;9.40;;
49175;SDS011;35012;47.200;9.748;2023-02-28T10:51:52;9.23;;;8.43;;
49175;SDS011;35012;47.200;9.748;2023-02-28T10:54:27;9.97;;;8.83;;
49175;SDS011;35012;47.200;9.748;2023-02-28T10:57:39;10.40;;;9.33;;
49175;SDS011;35012;47.200;9.748;2023-02-28T10:59:52;10.60;;;9.50;;
49175;SDS011;35012;47.200;9.748;2023-02-28T11:02:42;10.20;;;9.20;;
49175;SDS011;35012;47.200;9.748;2023-02-28T11:07:54;10.20;;;9.30;;
49175;SDS011;35012;47.200;9.748;2023-02-28T11:10:24;10.27;;;9.37;;
49175;SDS011;35012;47.200;9.748;2023-02-28T11:12:54;9.30;;;8.50;;
49175;SDS011;35012;47.200;9.748;2023-02-28T11:15:27;9.57;;;8.67;;
49175;SDS011;35012;47.200;9.748;2023-02-28T11:17:56;9.67;;;8.73;;
49175;SDS011;35012;47.200;9.748;2023-02-28T11:20:24;10.77;;;8.97;;
49175;SDS011;35012;47.200;9.748;2023-02-28T11:22:52;9.60;;;8.70;;
49175;SDS011;35012;47.200;9.748;2023-02-28T11:25:24;9.53;;;8.63;;
49175;SDS011;35012;47.200;9.748;2023-02-28T11:27:52;9.90;;;8.90;;
49175;SDS011;35012;47.200;9.748;2023-02-28T11:32:52;9.23;;;8.20;;
49175;SDS011;35012;47.200;9.748;2023-02-28T11:35:20;9.63;;;8.63;;
49175;SDS011;35012;47.200;9.748;2023-02-28T11:37:57;8.90;;;8.00;;
49175;SDS011;35012;47.200;9.748;2023-02-28T11:40:26;10.10;;;8.60;;
49175;SDS011;35012;47.200;9.748;2023-02-28T11:48:34;9.17;;;8.27;;
49175;SDS011;35012;47.200;9.748;2023-02-28T11:51:23;9.17;;;8.03;;
49175;SDS011;35012;47.200;9.748;2023-02-28T12:02:44;10.17;;;9.17;;
49175;SDS011;35012;47.200;9.748;2023-02-28T12:08:18;10.17;;;9.17;;
49175;SDS011;35012;47.200;9.748;2023-02-28T12:11:01;10.57;;;9.63;;
49175;SDS011;35012;47.200;9.748;2023-02-28T12:13:31;9.67;;;8.77;;
49175;SDS011;35012;47.200;9.748;2023-02-28T12:16:20;10.03;;;8.90;;
49175;SDS011;35012;47.200;9.748;2023-02-28T12:24:28;9.70;;;8.80;;
49175;SDS011;35012;47.200;9.748;2023-02-28T12:26:59;10.13;;;8.93;;
49175;SDS011;35012;47.200;9.748;2023-02-28T12:29:29;10.20;;;9.03;;
49175;SDS011;35012;47.200;9.748;2023-02-28T12:32:01;9.10;;;8.30;;
49175;SDS011;35012;47.200;9.748;2023-02-28T12:34:38;9.77;;;8.77;;
49175;SDS011;35012;47.200;9.748;2023-02-28T12:37:08;9.20;;;8.30;;
49175;SDS011;35012;47.200;9.748;2023-02-28T12:39:44;9.10;;;8.30;;
49175;SDS011;35012;47.200;9.748;2023-02-28T12:42:17;9.57;;;8.73;;
49175;SDS011;35012;47.200;9.748;2023-02-28T12:44:52;10.23;;;9.00;;
49175;SDS011;35012;47.200;9.748;2023-02-28T12:47:20;11.70;;;9.10;;
49175;SDS011;35012;47.200;9.748;2023-02-28T12:49:49;9.57;;;8.63;;
49175;SDS011;35012;47.200;9.748;2023-02-28T12:52:51;10.23;;;9.23;;
49175;SDS011;35012;47.200;9.748;2023-02-28T12:58:18;9.57;;;8.70;;
49175;SDS011;35012;47.200;9.748;2023-02-28T13:09:19;9.87;;;8.97;;
49175;SDS011;35012;47.200;9.748;2023-02-28T13:11:48;8.97;;;8.17;;
49175;SDS011;35012;47.200;9.748;2023-02-28T13:16:53;10.03;;;8.70;;
49175;SDS011;35012;47.200;9.748;2023-02-28T13:19:25;9.63;;;8.77;;
49175;SDS011;35012;47.200;9.748;2023-02-28T13:21:53;10.47;;;9.43;;
49175;SDS011;35012;47.200;9.748;2023-02-28T13:27:36;10.10;;;9.10;;
49175;SDS011;35012;47.200;9.748;2023-02-28T13:44:07;10.20;;;9.20;;
49175;SDS011;35012;47.200;9.748;2023-02-28T13:51:50;10.03;;;9.03;;
49175;SDS011;35012;47.200;9.748;2023-02-28T13:54:25;10.83;;;9.77;;
49175;SDS011;35012;47.200;9.748;2023-02-28T13:59:58;11.40;;;10.30;;
49175;SDS011;35012;47.200;9.748;2023-02-28T14:05:17;11.73;;;10.53;;
49175;SDS011;35012;47.200;9.748;2023-02-28T14:08:26;11.40;;;10.20;;
49175;SDS011;35012;47.200;9.748;2023-02-28T14:10:43;11.17;;;9.97;;
49175;SDS011;35012;47.200;9.748;2023-02-28T14:15:57;10.43;;;9.40;;
49175;SDS011;35012;47.200;9.748;2023-02-28T14:18:32;11.07;;;9.80;;
49175;SDS011;35012;47.200;9.748;2023-02-28T14:21:16;11.80;;;10.07;;
49175;SDS011;35012;47.200;9.748;2023-02-28T14:26:59;10.30;;;8.90;;
49175;SDS011;35012;47.200;9.748;2023-02-28T14:37:45;10.33;;;9.10;;
49175;SDS011;35012;47.200;9.748;2023-02-28T14:40:32;10.43;;;9.43;;
49175;SDS011;35012;47.200;9.748;2023-02-28T14:42:59;10.60;;;9.43;;
49175;SDS011;35012;47.200;9.748;2023-02-28T14:45:27;11.33;;;9.83;;
49175;SDS011;35012;47.200;9.748;2023-02-28T14:47:55;11.27;;;10.07;;
49175;SDS011;35012;47.200;9.748;2023-02-28T14:50:31;11.17;;;9.63;;
49175;SDS011;35012;47.200;9.748;2023-02-28T14:52:59;11.53;;;9.07;;
49175;SDS011;35012;47.200;9.748;2023-02-28T14:55:28;10.93;;;9.70;;
49175;SDS011;35012;47.200;9.748;2023-02-28T14:57:57;13.40;;;9.93;;
49175;SDS011;35012;47.200;9.748;2023-02-28T15:00:25;11.10;;;10.00;;
49175;SDS011;35012;47.200;9.748;2023-02-28T15:02:52;11.03;;;9.93;;
49175;SDS011;35012;47.200;9.748;2023-02-28T15:07:59;11.30;;;9.67;;
49175;SDS011;35012;47.200;9.748;2023-02-28T15:10:40;10.53;;;9.43;;
49175;SDS011;35012;47.200;9.748;2023-02-28T15:13:10;10.97;;;9.83;;
49175;SDS011;35012;47.200;9.748;2023-02-28T15:18:42;11.90;;;10.63;;
49175;SDS011;35012;47.200;9.748;2023-02-28T15:21:26;11.43;;;10.23;;
49175;SDS011;35012;47.200;9.748;2023-02-28T15:23:55;11.83;;;10.30;;
49175;SDS011;35012;47.200;9.748;2023-02-28T15:26:35;12.93;;;10.33;;
49175;SDS011;35012;47.200;9.748;2023-02-28T15:29:07;12.37;;;10.80;;
49175;SDS011;35012;47.200;9.748;2023-02-28T15:31:44;12.57;;;10.57;;
49175;SDS011;35012;47.200;9.748;2023-02-28T15:37:06;11.30;;;10.10;;
49175;SDS011;35012;47.200;9.748;2023-02-28T15:39:58;12.97;;;10.20;;
49175;SDS011;35012;47.200;9.748;2023-02-28T15:45:32;13.07;;;10.83;;
49175;SDS011;35012;47.200;9.748;2023-02-28T15:48:04;13.13;;;11.17;;
49175;SDS011;35012;47.200;9.748;2023-02-28T15:50:31;12.87;;;11.10;;
49175;SDS011;35012;47.200;9.748;2023-02-28T15:52:56;13.20;;;11.20;;
49175;SDS011;35012;47.200;9.748;2023-02-28T15:55:23;14.77;;;11.67;;
49175;SDS011;35012;47.200;9.748;2023-02-28T15:57:53;17.97;;;12.10;;
49175;SDS011;35012;47.200;9.748;2023-02-28T16:00:21;12.97;;;11.20;;
49175;SDS011;35012;47.200;9.748;2023-02-28T16:02:48;13.30;;;11.37;;
49175;SDS011;35012;47.200;9.748;2023-02-28T16:07:53;14.07;;;11.87;;
49175;SDS011;35012;47.200;9.748;2023-02-28T16:10:21;13.37;;;11.40;;
49175;SDS011;35012;47.200;9.748;2023-02-28T16:12:50;14.70;;;10.97;;
49175;SDS011;35012;47.200;9.748;2023-02-28T16:15:23;13.67;;;11.93;;
49175;SDS011;35012;47.200;9.748;2023-02-28T16:17:51;14.77;;;12.00;;
49175;SDS011;35012;47.200;9.748;2023-02-28T16:20:18;12.87;;;11.00;;
49175;SDS011;35012;47.200;9.748;2023-02-28T16:22:45;14.73;;;11.73;;
49175;SDS011;35012;47.200;9.748;2023-02-28T16:25:14;14.33;;;12.10;;
49175;SDS011;35012;47.200;9.748;2023-02-28T16:27:41;16.00;;;11.50;;
49175;SDS011;35012;47.200;9.748;2023-02-28T16:30:07;14.73;;;11.73;;
49175;SDS011;35012;47.200;9.748;2023-02-28T16:32:35;12.97;;;11.40;;
49175;SDS011;35012;47.200;9.748;2023-02-28T16:35:01;15.13;;;11.07;;
49175;SDS011;35012;47.200;9.748;2023-02-28T16:37:27;14.43;;;11.13;;
49175;SDS011;35012;47.200;9.748;2023-02-28T16:39:53;14.20;;;11.63;;
49175;SDS011;35012;47.200;9.748;2023-02-28T16:42:22;14.70;;;12.30;;
49175;SDS011;35012;47.200;9.748;2023-02-28T16:44:50;15.60;;;12.00;;
49175;SDS011;35012;47.200;9.748;2023-02-28T16:47:16;13.77;;;11.73;;
49175;SDS011;35012;47.200;9.748;2023-02-28T16:49:41;15.60;;;12.17;;
49175;SDS011;35012;47.200;9.748;2023-02-28T16:52:08;15.33;;;12.50;;
49175;SDS011;35012;47.200;9.748;2023-02-28T16:54:35;14.47;;;12.57;;
49175;SDS011;35012;47.200;9.748;2023-02-28T16:57:00;17.00;;;12.33;;
49175;SDS011;35012;47.200;9.748;2023-02-28T16:59:26;15.27;;;12.57;;
49175;SDS011;35012;47.200;9.748;2023-02-28T17:01:53;15.80;;;12.63;;
49175;SDS011;35012;47.200;9.748;2023-02-28T17:04:19;14.93;;;12.87;;
49175;SDS011;35012;47.200;9.748;2023-02-28T17:06:44;17.37;;;12.37;;
49175;SDS011;35012;47.200;9.748;2023-02-28T17:09:14;13.40;;;11.97;;
49175;SDS011;35012;47.200;9.748;2023-02-28T17:11:43;16.00;;;11.70;;
49175;SDS011;35012;47.200;9.748;2023-02-28T17:14:09;15.87;;;12.93;;
49175;SDS011;35012;47.200;9.748;2023-02-28T17:16:35;15.17;;;13.00;;
49175;SDS011;35012;47.200;9.748;2023-02-28T17:19:05;15.27;;;12.47;;
49175;SDS011;35012;47.200;9.748;2023-02-28T17:21:32;16.13;;;13.03;;